sensor_id;sensor_type;location;lat;lon;timestamp;temperature;humidity
54126;DHT22;40360;52.992;6.796;2024-02-16T00:00:18;11.50;99.90
54126;DHT22;40360;52.992;6.796;2024-02-16T00:02:44;11.50;99.90
54126;DHT22;40360;52.992;6.796;2024-02-16T00:05:11;11.50;99.90
54126;DHT22;40360;52.992;6.796;2024-02-16T00:07:38;11.50;99.90
54126;DHT22;40360;52.992;6.796;2024-02-16T00:10:05;11.50;99.90
54126;DHT22;40360;52.992;6.796;2024-02-16T00:12:31;11.50;99.90
54126;DHT22;40360;52.992;6.796;2024-02-16T00:14:58;11.50;99.90
54126;DHT22;40360;52.992;6.796;2024-02-16T00:17:24;11.50;99.90
54126;DHT22;40360;52.992;6.796;2024-02-16T00:19:52;11.50;99.90
54126;DHT22;40360;52.992;6.796;2024-02-16T00:22:18;11.50;99.90
54126;DHT22;40360;52.992;6.796;2024-02-16T00:24:45;11.50;99.90
54126;DHT22;40360;52.992;6.796;2024-02-16T00:27:11;11.50;99.90
54126;DHT22;40360;52.992;6.796;2024-02-16T00:29:36;11.50;99.90
54126;DHT22;40360;52.992;6.796;2024-02-16T00:32:04;11.50;99.90
54126;DHT22;40360;52.992;6.796;2024-02-16T00:34:35;11.50;99.90
54126;DHT22;40360;52.992;6.796;2024-02-16T00:37:01;11.50;99.90
54126;DHT22;40360;52.992;6.796;2024-02-16T00:39:27;11.50;99.90
54126;DHT22;40360;52.992;6.796;2024-02-16T00:41:53;11.50;99.90
54126;DHT22;40360;52.992;6.796;2024-02-16T00:44:19;11.50;99.90
54126;DHT22;40360;52.992;6.796;2024-02-16T00:46:45;11.50;99.90
54126;DHT22;40360;52.992;6.796;2024-02-16T00:49:11;11.50;99.90
54126;DHT22;40360;52.992;6.796;2024-02-16T00:51:37;11.50;99.90
54126;DHT22;40360;52.992;6.796;2024-02-16T00:54:03;11.50;99.90
54126;DHT22;40360;52.992;6.796;2024-02-16T00:56:30;11.50;99.90
54126;DHT22;40360;52.992;6.796;2024-02-16T00:58:56;11.50;99.90
54126;DHT22;40360;52.992;6.796;2024-02-16T01:01:22;11.50;99.90
54126;DHT22;40360;52.992;6.796;2024-02-16T01:03:48;11.40;99.90
54126;DHT22;40360;52.992;6.796;2024-02-16T01:06:15;11.40;99.90
54126;DHT22;40360;52.992;6.796;2024-02-16T01:08:40;11.40;99.90
54126;DHT22;40360;52.992;6.796;2024-02-16T01:11:06;11.30;99.90
54126;DHT22;40360;52.992;6.796;2024-02-16T01:13:33;11.30;99.90
54126;DHT22;40360;52.992;6.796;2024-02-16T01:15:59;11.30;99.90
54126;DHT22;40360;52.992;6.796;2024-02-16T01:18:28;11.30;99.90
54126;DHT22;40360;52.992;6.796;2024-02-16T01:20:54;11.30;99.90
54126;DHT22;40360;52.992;6.796;2024-02-16T01:23:21;11.30;99.90
54126;DHT22;40360;52.992;6.796;2024-02-16T01:25:47;11.30;99.90
54126;DHT22;40360;52.992;6.796;2024-02-16T01:28:14;11.20;99.90
54126;DHT22;40360;52.992;6.796;2024-02-16T01:30:40;11.20;99.90
54126;DHT22;40360;52.992;6.796;2024-02-16T01:33:06;11.20;99.90
54126;DHT22;40360;52.992;6.796;2024-02-16T01:35:33;11.10;99.90
54126;DHT22;40360;52.992;6.796;2024-02-16T01:37:59;11.10;99.90
54126;DHT22;40360;52.992;6.796;2024-02-16T01:40:25;11.10;99.90
54126;DHT22;40360;52.992;6.796;2024-02-16T01:42:52;11.10;99.90
54126;DHT22;40360;52.992;6.796;2024-02-16T01:45:21;11.10;99.90
54126;DHT22;40360;52.992;6.796;2024-02-16T01:47:49;11.00;99.90
54126;DHT22;40360;52.992;6.796;2024-02-16T01:50:16;11.00;99.90
54126;DHT22;40360;52.992;6.796;2024-02-16T01:52:43;11.00;99.90
54126;DHT22;40360;52.992;6.796;2024-02-16T01:55:09;11.00;99.90
54126;DHT22;40360;52.992;6.796;2024-02-16T01:57:47;11.00;99.90
54126;DHT22;40360;52.992;6.796;2024-02-16T02:00:13;10.90;99.90
54126;DHT22;40360;52.992;6.796;2024-02-16T02:02:41;10.90;99.90
54126;DHT22;40360;52.992;6.796;2024-02-16T02:05:09;10.90;99.90
54126;DHT22;40360;52.992;6.796;2024-02-16T02:07:35;10.90;99.90
54126;DHT22;40360;52.992;6.796;2024-02-16T02:10:01;10.90;99.90
54126;DHT22;40360;52.992;6.796;2024-02-16T02:12:26;10.90;99.90
54126;DHT22;40360;52.992;6.796;2024-02-16T02:14:52;10.90;99.90
54126;DHT22;40360;52.992;6.796;2024-02-16T02:17:18;10.90;99.90
54126;DHT22;40360;52.992;6.796;2024-02-16T02:19:48;10.90;99.90
54126;DHT22;40360;52.992;6.796;2024-02-16T02:22:17;10.90;99.90
54126;DHT22;40360;52.992;6.796;2024-02-16T02:24:44;10.90;99.90
54126;DHT22;40360;52.992;6.796;2024-02-16T02:27:11;10.90;99.90
54126;DHT22;40360;52.992;6.796;2024-02-16T02:29:37;10.90;99.90
54126;DHT22;40360;52.992;6.796;2024-02-16T02:32:03;10.90;99.90
54126;DHT22;40360;52.992;6.796;2024-02-16T02:34:29;10.90;99.90
54126;DHT22;40360;52.992;6.796;2024-02-16T02:36:55;10.90;99.90
54126;DHT22;40360;52.992;6.796;2024-02-16T02:39:21;10.90;99.90
54126;DHT22;40360;52.992;6.796;2024-02-16T02:41:47;10.90;99.90
54126;DHT22;40360;52.992;6.796;2024-02-16T02:44:13;10.90;99.90
54126;DHT22;40360;52.992;6.796;2024-02-16T02:46:38;10.90;99.90
54126;DHT22;40360;52.992;6.796;2024-02-16T02:49:04;10.80;99.90
54126;DHT22;40360;52.992;6.796;2024-02-16T02:51:30;10.80;99.90
54126;DHT22;40360;52.992;6.796;2024-02-16T02:53:56;10.80;99.90
54126;DHT22;40360;52.992;6.796;2024-02-16T02:56:22;10.80;99.90
54126;DHT22;40360;52.992;6.796;2024-02-16T02:58:48;10.80;99.90
54126;DHT22;40360;52.992;6.796;2024-02-16T03:01:14;10.80;99.90
54126;DHT22;40360;52.992;6.796;2024-02-16T03:03:41;10.90;99.90
54126;DHT22;40360;52.992;6.796;2024-02-16T03:06:08;10.90;99.90
54126;DHT22;40360;52.992;6.796;2024-02-16T03:08:38;10.90;99.90
54126;DHT22;40360;52.992;6.796;2024-02-16T03:11:04;10.90;99.90
54126;DHT22;40360;52.992;6.796;2024-02-16T03:13:31;10.90;99.90
54126;DHT22;40360;52.992;6.796;2024-02-16T03:15:57;10.90;99.90
54126;DHT22;40360;52.992;6.796;2024-02-16T03:18:23;10.90;99.90
54126;DHT22;40360;52.992;6.796;2024-02-16T03:20:49;10.90;99.90
54126;DHT22;40360;52.992;6.796;2024-02-16T03:23:16;10.90;99.90
54126;DHT22;40360;52.992;6.796;2024-02-16T03:25:42;11.00;99.90
54126;DHT22;40360;52.992;6.796;2024-02-16T03:28:11;11.00;99.90
54126;DHT22;40360;52.992;6.796;2024-02-16T03:30:37;10.90;99.90
54126;DHT22;40360;52.992;6.796;2024-02-16T03:33:04;10.90;99.90
54126;DHT22;40360;52.992;6.796;2024-02-16T03:35:29;11.00;99.90
54126;DHT22;40360;52.992;6.796;2024-02-16T03:37:55;11.00;99.90
54126;DHT22;40360;52.992;6.796;2024-02-16T03:40:23;11.00;99.90
54126;DHT22;40360;52.992;6.796;2024-02-16T03:42:53;11.00;99.90
54126;DHT22;40360;52.992;6.796;2024-02-16T03:45:19;10.90;99.90
54126;DHT22;40360;52.992;6.796;2024-02-16T03:47:44;10.90;99.90
54126;DHT22;40360;52.992;6.796;2024-02-16T03:50:10;10.90;99.90
54126;DHT22;40360;52.992;6.796;2024-02-16T03:52:37;10.90;99.90
54126;DHT22;40360;52.992;6.796;2024-02-16T03:55:03;10.90;99.90
54126;DHT22;40360;52.992;6.796;2024-02-16T03:57:30;10.90;99.90
54126;DHT22;40360;52.992;6.796;2024-02-16T03:59:56;10.90;99.90
54126;DHT22;40360;52.992;6.796;2024-02-16T04:02:25;10.90;99.90
54126;DHT22;40360;52.992;6.796;2024-02-16T04:04:51;10.90;99.90
54126;DHT22;40360;52.992;6.796;2024-02-16T04:07:17;10.90;99.90
54126;DHT22;40360;52.992;6.796;2024-02-16T04:09:43;10.90;99.90
54126;DHT22;40360;52.992;6.796;2024-02-16T04:12:08;10.80;99.90
54126;DHT22;40360;52.992;6.796;2024-02-16T04:14:35;10.80;99.90
54126;DHT22;40360;52.992;6.796;2024-02-16T04:17:01;10.80;99.90
54126;DHT22;40360;52.992;6.796;2024-02-16T04:19:27;10.90;99.90
54126;DHT22;40360;52.992;6.796;2024-02-16T04:21:53;10.90;99.90
54126;DHT22;40360;52.992;6.796;2024-02-16T04:24:19;10.80;99.90
54126;DHT22;40360;52.992;6.796;2024-02-16T04:26:45;10.90;99.90
54126;DHT22;40360;52.992;6.796;2024-02-16T04:29:11;10.80;99.90
54126;DHT22;40360;52.992;6.796;2024-02-16T04:31:41;10.80;99.90
54126;DHT22;40360;52.992;6.796;2024-02-16T04:34:13;10.80;99.90
54126;DHT22;40360;52.992;6.796;2024-02-16T04:36:39;10.80;99.90
54126;DHT22;40360;52.992;6.796;2024-02-16T04:39:05;10.80;99.90
54126;DHT22;40360;52.992;6.796;2024-02-16T04:41:30;10.80;99.90
54126;DHT22;40360;52.992;6.796;2024-02-16T04:43:56;10.80;99.90
54126;DHT22;40360;52.992;6.796;2024-02-16T04:46:22;10.80;99.90
54126;DHT22;40360;52.992;6.796;2024-02-16T04:48:47;10.80;99.90
54126;DHT22;40360;52.992;6.796;2024-02-16T04:51:13;10.80;99.90
54126;DHT22;40360;52.992;6.796;2024-02-16T04:53:39;10.80;99.90
54126;DHT22;40360;52.992;6.796;2024-02-16T04:56:05;10.80;99.90
54126;DHT22;40360;52.992;6.796;2024-02-16T04:58:31;10.80;99.90
54126;DHT22;40360;52.992;6.796;2024-02-16T05:00:57;10.80;99.90
54126;DHT22;40360;52.992;6.796;2024-02-16T05:03:23;10.80;99.90
54126;DHT22;40360;52.992;6.796;2024-02-16T05:05:49;10.80;99.90
54126;DHT22;40360;52.992;6.796;2024-02-16T05:08:15;10.80;99.90
54126;DHT22;40360;52.992;6.796;2024-02-16T05:10:41;10.90;99.90
54126;DHT22;40360;52.992;6.796;2024-02-16T05:13:06;10.90;99.90
54126;DHT22;40360;52.992;6.796;2024-02-16T05:15:38;10.90;99.90
54126;DHT22;40360;52.992;6.796;2024-02-16T05:18:08;10.90;99.90
54126;DHT22;40360;52.992;6.796;2024-02-16T05:20:33;10.90;99.90
54126;DHT22;40360;52.992;6.796;2024-02-16T05:22:59;10.90;99.90
54126;DHT22;40360;52.992;6.796;2024-02-16T05:25:25;10.90;99.90
54126;DHT22;40360;52.992;6.796;2024-02-16T05:27:51;10.90;99.90
54126;DHT22;40360;52.992;6.796;2024-02-16T05:30:16;10.90;99.90
54126;DHT22;40360;52.992;6.796;2024-02-16T05:32:42;10.90;99.90
54126;DHT22;40360;52.992;6.796;2024-02-16T05:35:09;10.90;99.90
54126;DHT22;40360;52.992;6.796;2024-02-16T05:37:39;10.90;99.90
54126;DHT22;40360;52.992;6.796;2024-02-16T05:40:14;10.90;99.90
54126;DHT22;40360;52.992;6.796;2024-02-16T05:42:57;10.90;99.90
54126;DHT22;40360;52.992;6.796;2024-02-16T05:45:34;10.90;99.90
54126;DHT22;40360;52.992;6.796;2024-02-16T05:48:03;10.90;99.90
54126;DHT22;40360;52.992;6.796;2024-02-16T05:50:39;10.90;99.90
54126;DHT22;40360;52.992;6.796;2024-02-16T05:53:15;10.90;99.90
54126;DHT22;40360;52.992;6.796;2024-02-16T05:55:43;10.90;99.90
54126;DHT22;40360;52.992;6.796;2024-02-16T05:58:09;11.00;99.90
54126;DHT22;40360;52.992;6.796;2024-02-16T06:00:36;11.00;99.90
54126;DHT22;40360;52.992;6.796;2024-02-16T06:03:02;11.00;99.90
54126;DHT22;40360;52.992;6.796;2024-02-16T06:05:28;11.00;99.90
54126;DHT22;40360;52.992;6.796;2024-02-16T06:07:54;11.00;99.90
54126;DHT22;40360;52.992;6.796;2024-02-16T06:10:22;11.00;99.90
54126;DHT22;40360;52.992;6.796;2024-02-16T06:12:51;11.00;99.90
54126;DHT22;40360;52.992;6.796;2024-02-16T06:15:17;11.00;99.90
54126;DHT22;40360;52.992;6.796;2024-02-16T06:17:48;11.10;99.90
54126;DHT22;40360;52.992;6.796;2024-02-16T06:20:15;11.10;99.90
54126;DHT22;40360;52.992;6.796;2024-02-16T06:22:41;11.10;99.90
54126;DHT22;40360;52.992;6.796;2024-02-16T06:25:08;11.10;99.90
54126;DHT22;40360;52.992;6.796;2024-02-16T06:27:35;11.00;99.90
54126;DHT22;40360;52.992;6.796;2024-02-16T06:30:03;11.00;99.90
54126;DHT22;40360;52.992;6.796;2024-02-16T06:32:30;11.10;99.90
54126;DHT22;40360;52.992;6.796;2024-02-16T06:34:57;11.00;99.90
54126;DHT22;40360;52.992;6.796;2024-02-16T06:37:23;11.00;99.90
54126;DHT22;40360;52.992;6.796;2024-02-16T06:39:48;11.00;99.90
54126;DHT22;40360;52.992;6.796;2024-02-16T06:42:45;11.00;99.90
54126;DHT22;40360;52.992;6.796;2024-02-16T06:45:12;11.10;99.90
54126;DHT22;40360;52.992;6.796;2024-02-16T06:47:38;11.00;99.90
54126;DHT22;40360;52.992;6.796;2024-02-16T06:50:04;11.00;99.90
54126;DHT22;40360;52.992;6.796;2024-02-16T06:52:30;11.00;99.90
54126;DHT22;40360;52.992;6.796;2024-02-16T06:54:57;11.00;99.90
54126;DHT22;40360;52.992;6.796;2024-02-16T06:57:23;11.00;99.90
54126;DHT22;40360;52.992;6.796;2024-02-16T06:59:50;11.00;99.90
54126;DHT22;40360;52.992;6.796;2024-02-16T07:02:18;11.00;99.90
54126;DHT22;40360;52.992;6.796;2024-02-16T07:04:50;11.00;99.90
54126;DHT22;40360;52.992;6.796;2024-02-16T07:07:20;11.00;99.90
54126;DHT22;40360;52.992;6.796;2024-02-16T07:09:49;11.00;99.90
54126;DHT22;40360;52.992;6.796;2024-02-16T07:12:15;11.00;99.90
54126;DHT22;40360;52.992;6.796;2024-02-16T07:18:12;11.10;99.90
54126;DHT22;40360;52.992;6.796;2024-02-16T07:20:38;11.10;99.90
54126;DHT22;40360;52.992;6.796;2024-02-16T07:23:07;11.20;99.90
54126;DHT22;40360;52.992;6.796;2024-02-16T07:25:35;11.20;99.90
54126;DHT22;40360;52.992;6.796;2024-02-16T07:28:01;11.30;99.90
54126;DHT22;40360;52.992;6.796;2024-02-16T07:30:27;11.30;99.90
54126;DHT22;40360;52.992;6.796;2024-02-16T07:32:53;11.30;99.90
54126;DHT22;40360;52.992;6.796;2024-02-16T07:35:19;11.40;99.90
54126;DHT22;40360;52.992;6.796;2024-02-16T07:37:45;11.40;99.90
54126;DHT22;40360;52.992;6.796;2024-02-16T07:40:11;11.40;99.90
54126;DHT22;40360;52.992;6.796;2024-02-16T07:42:45;11.50;99.90
54126;DHT22;40360;52.992;6.796;2024-02-16T07:45:31;11.50;99.90
54126;DHT22;40360;52.992;6.796;2024-02-16T07:47:57;11.50;99.90
54126;DHT22;40360;52.992;6.796;2024-02-16T07:50:23;11.50;99.90
54126;DHT22;40360;52.992;6.796;2024-02-16T07:52:50;11.60;99.90
54126;DHT22;40360;52.992;6.796;2024-02-16T07:55:16;11.60;99.90
54126;DHT22;40360;52.992;6.796;2024-02-16T07:57:46;11.60;99.90
54126;DHT22;40360;52.992;6.796;2024-02-16T08:00:12;11.70;99.90
54126;DHT22;40360;52.992;6.796;2024-02-16T08:02:38;11.70;99.90
54126;DHT22;40360;52.992;6.796;2024-02-16T08:05:07;11.70;99.90
54126;DHT22;40360;52.992;6.796;2024-02-16T08:07:52;11.70;99.90
54126;DHT22;40360;52.992;6.796;2024-02-16T08:10:22;11.70;99.90
54126;DHT22;40360;52.992;6.796;2024-02-16T08:12:54;11.80;99.90
54126;DHT22;40360;52.992;6.796;2024-02-16T08:15:20;11.80;99.90
54126;DHT22;40360;52.992;6.796;2024-02-16T08:17:49;11.90;99.90
54126;DHT22;40360;52.992;6.796;2024-02-16T08:20:19;11.90;99.90
54126;DHT22;40360;52.992;6.796;2024-02-16T08:22:46;11.90;99.90
54126;DHT22;40360;52.992;6.796;2024-02-16T08:25:12;11.90;99.90
54126;DHT22;40360;52.992;6.796;2024-02-16T08:27:38;11.90;99.90
54126;DHT22;40360;52.992;6.796;2024-02-16T08:30:05;11.90;99.90
54126;DHT22;40360;52.992;6.796;2024-02-16T08:32:31;11.90;99.90
54126;DHT22;40360;52.992;6.796;2024-02-16T08:34:56;11.90;99.90
54126;DHT22;40360;52.992;6.796;2024-02-16T08:37:24;11.90;99.90
54126;DHT22;40360;52.992;6.796;2024-02-16T08:42:56;12.00;99.90
54126;DHT22;40360;52.992;6.796;2024-02-16T09:02:56;13.40;99.90
54126;DHT22;40360;52.992;6.796;2024-02-16T09:05:23;12.40;99.90
54126;DHT22;40360;52.992;6.796;2024-02-16T09:07:49;12.40;99.90
54126;DHT22;40360;52.992;6.796;2024-02-16T09:10:15;12.40;99.90
54126;DHT22;40360;52.992;6.796;2024-02-16T09:12:41;12.40;99.90
54126;DHT22;40360;52.992;6.796;2024-02-16T09:15:07;12.50;99.90
54126;DHT22;40360;52.992;6.796;2024-02-16T09:17:34;12.50;99.90
54126;DHT22;40360;52.992;6.796;2024-02-16T09:20:03;12.50;99.90
54126;DHT22;40360;52.992;6.796;2024-02-16T09:22:30;12.60;99.90
54126;DHT22;40360;52.992;6.796;2024-02-16T09:24:56;12.60;99.90
54126;DHT22;40360;52.992;6.796;2024-02-16T09:27:25;12.60;99.90
54126;DHT22;40360;52.992;6.796;2024-02-16T09:29:51;12.60;99.90
54126;DHT22;40360;52.992;6.796;2024-02-16T09:32:18;12.60;99.90
54126;DHT22;40360;52.992;6.796;2024-02-16T09:34:43;12.70;99.90
54126;DHT22;40360;52.992;6.796;2024-02-16T09:37:09;12.70;99.90
54126;DHT22;40360;52.992;6.796;2024-02-16T09:39:37;12.70;99.90
54126;DHT22;40360;52.992;6.796;2024-02-16T09:42:03;12.70;99.90
54126;DHT22;40360;52.992;6.796;2024-02-16T09:44:28;12.70;99.90
54126;DHT22;40360;52.992;6.796;2024-02-16T09:46:55;12.70;99.90
54126;DHT22;40360;52.992;6.796;2024-02-16T09:49:21;12.80;99.90
54126;DHT22;40360;52.992;6.796;2024-02-16T09:51:47;12.80;99.90
54126;DHT22;40360;52.992;6.796;2024-02-16T09:54:12;12.80;99.90
54126;DHT22;40360;52.992;6.796;2024-02-16T09:56:38;12.90;99.90
54126;DHT22;40360;52.992;6.796;2024-02-16T09:59:04;12.90;99.90
54126;DHT22;40360;52.992;6.796;2024-02-16T10:01:30;12.90;99.90
54126;DHT22;40360;52.992;6.796;2024-02-16T10:04:06;13.00;99.90
54126;DHT22;40360;52.992;6.796;2024-02-16T10:06:33;13.00;99.90
54126;DHT22;40360;52.992;6.796;2024-02-16T10:08:59;13.00;99.90
54126;DHT22;40360;52.992;6.796;2024-02-16T10:11:27;13.10;99.90
54126;DHT22;40360;52.992;6.796;2024-02-16T10:13:58;13.10;99.90
54126;DHT22;40360;52.992;6.796;2024-02-16T10:16:25;13.20;99.90
54126;DHT22;40360;52.992;6.796;2024-02-16T10:18:51;13.20;99.90
54126;DHT22;40360;52.992;6.796;2024-02-16T10:21:27;13.20;99.90
54126;DHT22;40360;52.992;6.796;2024-02-16T10:24:00;13.30;99.90
54126;DHT22;40360;52.992;6.796;2024-02-16T10:26:28;13.30;99.90
54126;DHT22;40360;52.992;6.796;2024-02-16T10:28:55;13.30;99.90
54126;DHT22;40360;52.992;6.796;2024-02-16T10:31:23;13.30;99.90
54126;DHT22;40360;52.992;6.796;2024-02-16T10:34:01;13.40;99.90
54126;DHT22;40360;52.992;6.796;2024-02-16T10:36:32;13.40;99.90
54126;DHT22;40360;52.992;6.796;2024-02-16T10:38:59;13.50;99.90
54126;DHT22;40360;52.992;6.796;2024-02-16T10:41:27;13.50;99.90
54126;DHT22;40360;52.992;6.796;2024-02-16T10:43:54;13.60;99.90
54126;DHT22;40360;52.992;6.796;2024-02-16T10:46:22;13.60;99.90
54126;DHT22;40360;52.992;6.796;2024-02-16T10:48:48;13.60;99.90
54126;DHT22;40360;52.992;6.796;2024-02-16T10:51:17;13.70;99.90
54126;DHT22;40360;52.992;6.796;2024-02-16T10:53:46;13.70;99.90
54126;DHT22;40360;52.992;6.796;2024-02-16T10:56:13;13.60;99.90
54126;DHT22;40360;52.992;6.796;2024-02-16T10:58:39;13.70;99.90
54126;DHT22;40360;52.992;6.796;2024-02-16T11:01:10;13.60;99.90
54126;DHT22;40360;52.992;6.796;2024-02-16T11:03:39;13.60;99.90
54126;DHT22;40360;52.992;6.796;2024-02-16T11:06:17;13.50;99.90
54126;DHT22;40360;52.992;6.796;2024-02-16T11:08:43;13.50;99.90
54126;DHT22;40360;52.992;6.796;2024-02-16T11:11:09;13.50;99.90
54126;DHT22;40360;52.992;6.796;2024-02-16T11:13:38;13.40;99.90
54126;DHT22;40360;52.992;6.796;2024-02-16T11:16:08;13.30;99.90
54126;DHT22;40360;52.992;6.796;2024-02-16T11:18:39;13.30;99.90
54126;DHT22;40360;52.992;6.796;2024-02-16T11:21:05;13.20;99.90
54126;DHT22;40360;52.992;6.796;2024-02-16T11:23:35;13.10;99.90
54126;DHT22;40360;52.992;6.796;2024-02-16T11:26:02;13.10;99.90
54126;DHT22;40360;52.992;6.796;2024-02-16T11:28:31;13.10;99.90
54126;DHT22;40360;52.992;6.796;2024-02-16T11:30:58;13.10;99.90
54126;DHT22;40360;52.992;6.796;2024-02-16T11:33:24;13.00;99.90
54126;DHT22;40360;52.992;6.796;2024-02-16T11:35:58;13.00;99.90
54126;DHT22;40360;52.992;6.796;2024-02-16T11:38:24;13.00;99.90
54126;DHT22;40360;52.992;6.796;2024-02-16T11:41:08;12.90;99.90
54126;DHT22;40360;52.992;6.796;2024-02-16T11:43:34;12.90;99.90
54126;DHT22;40360;52.992;6.796;2024-02-16T11:46:11;12.90;99.90
54126;DHT22;40360;52.992;6.796;2024-02-16T11:48:37;12.90;99.90
54126;DHT22;40360;52.992;6.796;2024-02-16T11:51:03;12.80;99.90
54126;DHT22;40360;52.992;6.796;2024-02-16T11:53:30;12.80;99.90
54126;DHT22;40360;52.992;6.796;2024-02-16T11:55:56;12.70;99.90
54126;DHT22;40360;52.992;6.796;2024-02-16T11:58:22;12.60;99.90
54126;DHT22;40360;52.992;6.796;2024-02-16T12:00:49;12.40;99.90
54126;DHT22;40360;52.992;6.796;2024-02-16T12:03:23;12.40;99.90
54126;DHT22;40360;52.992;6.796;2024-02-16T12:05:57;12.30;99.90
54126;DHT22;40360;52.992;6.796;2024-02-16T12:08:23;12.20;99.90
54126;DHT22;40360;52.992;6.796;2024-02-16T12:10:51;12.10;99.90
54126;DHT22;40360;52.992;6.796;2024-02-16T12:13:18;12.00;99.90
54126;DHT22;40360;52.992;6.796;2024-02-16T12:15:45;12.00;99.90
54126;DHT22;40360;52.992;6.796;2024-02-16T12:18:25;12.00;99.90
54126;DHT22;40360;52.992;6.796;2024-02-16T12:23:28;11.90;99.90
54126;DHT22;40360;52.992;6.796;2024-02-16T12:25:56;11.80;99.90
54126;DHT22;40360;52.992;6.796;2024-02-16T12:28:25;11.70;99.90
54126;DHT22;40360;52.992;6.796;2024-02-16T12:30:53;11.70;99.90
54126;DHT22;40360;52.992;6.796;2024-02-16T12:33:20;11.60;99.90
54126;DHT22;40360;52.992;6.796;2024-02-16T12:35:46;11.60;99.90
54126;DHT22;40360;52.992;6.796;2024-02-16T12:38:12;11.60;99.90
54126;DHT22;40360;52.992;6.796;2024-02-16T12:40:38;11.60;99.90
54126;DHT22;40360;52.992;6.796;2024-02-16T12:43:04;11.60;99.90
54126;DHT22;40360;52.992;6.796;2024-02-16T12:45:30;11.60;99.90
54126;DHT22;40360;52.992;6.796;2024-02-16T12:47:57;11.60;99.90
54126;DHT22;40360;52.992;6.796;2024-02-16T12:50:23;11.60;99.90
54126;DHT22;40360;52.992;6.796;2024-02-16T12:52:48;11.60;99.90
54126;DHT22;40360;52.992;6.796;2024-02-16T12:55:14;11.60;99.90
54126;DHT22;40360;52.992;6.796;2024-02-16T12:57:41;11.50;99.90
54126;DHT22;40360;52.992;6.796;2024-02-16T13:00:07;11.60;99.90
54126;DHT22;40360;52.992;6.796;2024-02-16T13:05:30;11.60;99.90
54126;DHT22;40360;52.992;6.796;2024-02-16T13:08:02;11.60;99.90
54126;DHT22;40360;52.992;6.796;2024-02-16T13:10:35;11.60;99.90
54126;DHT22;40360;52.992;6.796;2024-02-16T13:13:00;11.50;99.90
54126;DHT22;40360;52.992;6.796;2024-02-16T13:15:26;11.50;99.90
54126;DHT22;40360;52.992;6.796;2024-02-16T13:17:52;11.50;99.90
54126;DHT22;40360;52.992;6.796;2024-02-16T13:20:24;11.50;99.90
54126;DHT22;40360;52.992;6.796;2024-02-16T13:22:50;11.50;99.90
54126;DHT22;40360;52.992;6.796;2024-02-16T13:25:24;11.50;99.90
54126;DHT22;40360;52.992;6.796;2024-02-16T13:27:50;11.50;99.90
54126;DHT22;40360;52.992;6.796;2024-02-16T13:30:16;11.40;99.90
54126;DHT22;40360;52.992;6.796;2024-02-16T13:32:42;11.40;99.90
54126;DHT22;40360;52.992;6.796;2024-02-16T13:35:08;11.30;99.90
54126;DHT22;40360;52.992;6.796;2024-02-16T13:37:34;11.30;99.90
54126;DHT22;40360;52.992;6.796;2024-02-16T13:40:00;11.30;99.90
54126;DHT22;40360;52.992;6.796;2024-02-16T13:42:29;11.30;99.90
54126;DHT22;40360;52.992;6.796;2024-02-16T13:44:56;11.30;99.90
54126;DHT22;40360;52.992;6.796;2024-02-16T13:47:23;11.30;99.90
54126;DHT22;40360;52.992;6.796;2024-02-16T13:49:53;11.30;99.90
54126;DHT22;40360;52.992;6.796;2024-02-16T13:52:19;11.30;99.90
54126;DHT22;40360;52.992;6.796;2024-02-16T13:54:54;11.40;99.90
54126;DHT22;40360;52.992;6.796;2024-02-16T13:57:32;11.40;99.90
54126;DHT22;40360;52.992;6.796;2024-02-16T14:02:39;11.40;99.90
54126;DHT22;40360;52.992;6.796;2024-02-16T14:05:05;11.50;99.90
54126;DHT22;40360;52.992;6.796;2024-02-16T14:07:44;11.50;99.90
54126;DHT22;40360;52.992;6.796;2024-02-16T14:10:12;11.50;99.90
54126;DHT22;40360;52.992;6.796;2024-02-16T14:12:38;11.50;99.90
54126;DHT22;40360;52.992;6.796;2024-02-16T14:15:11;11.50;99.90
54126;DHT22;40360;52.992;6.796;2024-02-16T14:17:42;11.50;99.90
54126;DHT22;40360;52.992;6.796;2024-02-16T14:20:08;11.50;99.90
54126;DHT22;40360;52.992;6.796;2024-02-16T14:22:42;11.60;99.90
54126;DHT22;40360;52.992;6.796;2024-02-16T14:25:33;11.60;99.90
54126;DHT22;40360;52.992;6.796;2024-02-16T14:28:00;11.50;99.90
54126;DHT22;40360;52.992;6.796;2024-02-16T14:30:27;11.50;99.90
54126;DHT22;40360;52.992;6.796;2024-02-16T14:32:57;11.60;99.90
54126;DHT22;40360;52.992;6.796;2024-02-16T14:35:27;11.60;99.90
54126;DHT22;40360;52.992;6.796;2024-02-16T14:37:55;11.60;99.90
54126;DHT22;40360;52.992;6.796;2024-02-16T14:40:37;11.60;99.90
54126;DHT22;40360;52.992;6.796;2024-02-16T14:43:03;11.60;99.90
54126;DHT22;40360;52.992;6.796;2024-02-16T14:45:41;11.50;99.90
54126;DHT22;40360;52.992;6.796;2024-02-16T14:48:10;11.50;99.90
54126;DHT22;40360;52.992;6.796;2024-02-16T14:50:37;11.50;99.90
54126;DHT22;40360;52.992;6.796;2024-02-16T14:53:03;11.50;99.90
54126;DHT22;40360;52.992;6.796;2024-02-16T14:55:33;11.50;99.90
54126;DHT22;40360;52.992;6.796;2024-02-16T14:58:02;11.50;99.90
54126;DHT22;40360;52.992;6.796;2024-02-16T15:00:36;11.50;99.90
54126;DHT22;40360;52.992;6.796;2024-02-16T15:03:03;11.50;99.90
54126;DHT22;40360;52.992;6.796;2024-02-16T15:05:29;11.50;99.90
54126;DHT22;40360;52.992;6.796;2024-02-16T15:07:55;11.40;99.90
54126;DHT22;40360;52.992;6.796;2024-02-16T15:10:32;11.40;99.90
54126;DHT22;40360;52.992;6.796;2024-02-16T15:13:12;11.40;99.90
54126;DHT22;40360;52.992;6.796;2024-02-16T15:15:45;11.40;99.90
54126;DHT22;40360;52.992;6.796;2024-02-16T15:18:21;11.40;99.90
54126;DHT22;40360;52.992;6.796;2024-02-16T15:21:11;11.40;99.90
54126;DHT22;40360;52.992;6.796;2024-02-16T15:23:49;11.40;99.90
54126;DHT22;40360;52.992;6.796;2024-02-16T15:26:15;11.40;99.90
54126;DHT22;40360;52.992;6.796;2024-02-16T15:28:46;11.40;99.90
54126;DHT22;40360;52.992;6.796;2024-02-16T15:31:29;11.40;99.90
54126;DHT22;40360;52.992;6.796;2024-02-16T15:33:58;11.40;99.90
54126;DHT22;40360;52.992;6.796;2024-02-16T15:36:45;11.40;99.90
54126;DHT22;40360;52.992;6.796;2024-02-16T15:39:14;11.40;99.90
54126;DHT22;40360;52.992;6.796;2024-02-16T15:41:43;11.40;99.90
54126;DHT22;40360;52.992;6.796;2024-02-16T15:44:12;11.40;99.90
54126;DHT22;40360;52.992;6.796;2024-02-16T15:46:41;11.40;99.90
54126;DHT22;40360;52.992;6.796;2024-02-16T15:49:21;11.40;99.90
54126;DHT22;40360;52.992;6.796;2024-02-16T15:51:47;11.30;99.90
54126;DHT22;40360;52.992;6.796;2024-02-16T15:54:16;11.30;99.90
54126;DHT22;40360;52.992;6.796;2024-02-16T15:56:56;11.20;99.90
54126;DHT22;40360;52.992;6.796;2024-02-16T16:02:23;11.20;99.90
54126;DHT22;40360;52.992;6.796;2024-02-16T16:08:04;11.10;99.90
54126;DHT22;40360;52.992;6.796;2024-02-16T16:10:39;11.00;99.90
54126;DHT22;40360;52.992;6.796;2024-02-16T16:13:10;11.00;99.90